sensor_id;sensor_type;location;lat;lon;timestamp;temperature;humidity
16968;DHT22;64862;54.398;10.126;2024-03-06T00:09:19;5.80;99.90
16968;DHT22;64862;54.398;10.126;2024-03-06T00:19:23;5.80;99.90
16968;DHT22;64862;54.398;10.126;2024-03-06T00:29:25;5.80;99.90
16968;DHT22;64862;54.398;10.126;2024-03-06T00:39:28;5.70;99.90
16968;DHT22;64862;54.398;10.126;2024-03-06T00:49:30;5.80;99.90
16968;DHT22;64862;54.398;10.126;2024-03-06T00:59:33;5.80;99.90
16968;DHT22;64862;54.398;10.126;2024-03-06T01:09:35;5.70;99.90
16968;DHT22;64862;54.398;10.126;2024-03-06T01:19:39;5.70;99.90
16968;DHT22;64862;54.398;10.126;2024-03-06T01:29:41;5.70;99.90
16968;DHT22;64862;54.398;10.126;2024-03-06T01:39:45;5.70;99.90
16968;DHT22;64862;54.398;10.126;2024-03-06T01:49:47;5.70;99.90
16968;DHT22;64862;54.398;10.126;2024-03-06T01:59:51;5.70;99.90
16968;DHT22;64862;54.398;10.126;2024-03-06T02:09:53;5.70;99.90
16968;DHT22;64862;54.398;10.126;2024-03-06T02:19:56;5.80;99.90
16968;DHT22;64862;54.398;10.126;2024-03-06T02:30:01;5.80;99.90
16968;DHT22;64862;54.398;10.126;2024-03-06T02:40:04;5.70;99.90
16968;DHT22;64862;54.398;10.126;2024-03-06T02:50:11;5.60;99.90
16968;DHT22;64862;54.398;10.126;2024-03-06T03:00:13;5.70;99.90
16968;DHT22;64862;54.398;10.126;2024-03-06T03:10:18;5.70;99.90
16968;DHT22;64862;54.398;10.126;2024-03-06T03:20:20;5.70;99.90
16968;DHT22;64862;54.398;10.126;2024-03-06T03:30:23;5.70;99.90
16968;DHT22;64862;54.398;10.126;2024-03-06T03:40:25;5.70;99.90
16968;DHT22;64862;54.398;10.126;2024-03-06T03:50:29;5.80;99.90
16968;DHT22;64862;54.398;10.126;2024-03-06T04:00:31;5.80;99.90
16968;DHT22;64862;54.398;10.126;2024-03-06T04:10:34;5.90;99.90
16968;DHT22;64862;54.398;10.126;2024-03-06T04:20:36;5.80;99.90
16968;DHT22;64862;54.398;10.126;2024-03-06T04:30:40;5.80;99.90
16968;DHT22;64862;54.398;10.126;2024-03-06T04:40:42;5.90;99.90
16968;DHT22;64862;54.398;10.126;2024-03-06T04:50:46;6.00;99.90
16968;DHT22;64862;54.398;10.126;2024-03-06T05:00:48;6.00;99.90
16968;DHT22;64862;54.398;10.126;2024-03-06T05:10:52;6.00;99.90
16968;DHT22;64862;54.398;10.126;2024-03-06T05:20:54;6.00;99.90
16968;DHT22;64862;54.398;10.126;2024-03-06T05:30:58;6.00;99.90
16968;DHT22;64862;54.398;10.126;2024-03-06T05:41:26;6.00;99.90
16968;DHT22;64862;54.398;10.126;2024-03-06T05:51:43;5.90;99.90
16968;DHT22;64862;54.398;10.126;2024-03-06T06:01:46;6.00;99.90
16968;DHT22;64862;54.398;10.126;2024-03-06T06:11:49;6.00;99.90
16968;DHT22;64862;54.398;10.126;2024-03-06T06:21:53;6.10;99.90
16968;DHT22;64862;54.398;10.126;2024-03-06T06:31:57;6.10;99.90
16968;DHT22;64862;54.398;10.126;2024-03-06T06:42:01;6.10;99.90
16968;DHT22;64862;54.398;10.126;2024-03-06T06:52:05;6.10;99.90
16968;DHT22;64862;54.398;10.126;2024-03-06T07:02:07;6.20;99.90
16968;DHT22;64862;54.398;10.126;2024-03-06T07:12:10;6.20;99.90
16968;DHT22;64862;54.398;10.126;2024-03-06T07:22:12;6.30;99.90
16968;DHT22;64862;54.398;10.126;2024-03-06T07:32:16;6.30;99.90
16968;DHT22;64862;54.398;10.126;2024-03-06T07:42:18;6.30;99.90
16968;DHT22;64862;54.398;10.126;2024-03-06T07:52:21;6.40;99.90
16968;DHT22;64862;54.398;10.126;2024-03-06T08:02:23;6.30;99.90
16968;DHT22;64862;54.398;10.126;2024-03-06T08:12:27;6.40;99.90
16968;DHT22;64862;54.398;10.126;2024-03-06T08:22:29;6.40;99.90
16968;DHT22;64862;54.398;10.126;2024-03-06T08:32:33;6.40;99.90
16968;DHT22;64862;54.398;10.126;2024-03-06T08:42:35;6.50;99.90
16968;DHT22;64862;54.398;10.126;2024-03-06T08:52:39;6.40;99.90
16968;DHT22;64862;54.398;10.126;2024-03-06T09:02:41;6.50;99.90
16968;DHT22;64862;54.398;10.126;2024-03-06T09:12:45;6.60;99.90
16968;DHT22;64862;54.398;10.126;2024-03-06T09:22:47;6.70;99.90
16968;DHT22;64862;54.398;10.126;2024-03-06T09:32:51;6.70;99.90
16968;DHT22;64862;54.398;10.126;2024-03-06T09:42:53;6.70;99.90
16968;DHT22;64862;54.398;10.126;2024-03-06T09:52:56;6.70;99.90
16968;DHT22;64862;54.398;10.126;2024-03-06T10:02:59;6.80;99.90
16968;DHT22;64862;54.398;10.126;2024-03-06T10:13:03;6.70;99.90
16968;DHT22;64862;54.398;10.126;2024-03-06T10:23:05;6.70;99.90
16968;DHT22;64862;54.398;10.126;2024-03-06T10:33:12;6.70;99.90
16968;DHT22;64862;54.398;10.126;2024-03-06T10:43:14;6.70;99.90
16968;DHT22;64862;54.398;10.126;2024-03-06T10:53:18;6.70;99.90
16968;DHT22;64862;54.398;10.126;2024-03-06T11:03:20;6.70;99.90
16968;DHT22;64862;54.398;10.126;2024-03-06T11:13:26;6.80;99.90
16968;DHT22;64862;54.398;10.126;2024-03-06T11:23:29;6.80;99.90
16968;DHT22;64862;54.398;10.126;2024-03-06T11:33:36;6.80;99.90
16968;DHT22;64862;54.398;10.126;2024-03-06T11:43:42;6.90;99.90
16968;DHT22;64862;54.398;10.126;2024-03-06T11:53:46;6.80;99.90
16968;DHT22;64862;54.398;10.126;2024-03-06T12:03:50;6.90;99.90
16968;DHT22;64862;54.398;10.126;2024-03-06T12:13:54;6.80;99.90
16968;DHT22;64862;54.398;10.126;2024-03-06T12:24:04;6.80;99.90
16968;DHT22;64862;54.398;10.126;2024-03-06T12:34:08;6.90;99.90
16968;DHT22;64862;54.398;10.126;2024-03-06T12:44:14;6.80;99.90
16968;DHT22;64862;54.398;10.126;2024-03-06T12:54:19;6.80;99.90
16968;DHT22;64862;54.398;10.126;2024-03-06T13:04:21;6.80;99.90
16968;DHT22;64862;54.398;10.126;2024-03-06T13:14:25;6.80;99.90
16968;DHT22;64862;54.398;10.126;2024-03-06T13:24:27;6.80;99.90
16968;DHT22;64862;54.398;10.126;2024-03-06T13:34:30;6.90;99.90
16968;DHT22;64862;54.398;10.126;2024-03-06T13:44:32;6.80;99.90
16968;DHT22;64862;54.398;10.126;2024-03-06T13:54:38;6.80;99.90
16968;DHT22;64862;54.398;10.126;2024-03-06T14:04:40;6.90;99.90
16968;DHT22;64862;54.398;10.126;2024-03-06T14:14:43;6.80;99.90
16968;DHT22;64862;54.398;10.126;2024-03-06T14:24:45;6.80;99.90
16968;DHT22;64862;54.398;10.126;2024-03-06T14:34:49;7.00;99.90
16968;DHT22;64862;54.398;10.126;2024-03-06T14:44:51;7.00;99.90
16968;DHT22;64862;54.398;10.126;2024-03-06T14:54:55;6.90;99.90
16968;DHT22;64862;54.398;10.126;2024-03-06T15:04:57;6.90;99.90
16968;DHT22;64862;54.398;10.126;2024-03-06T15:15:01;6.90;99.90
16968;DHT22;64862;54.398;10.126;2024-03-06T15:25:03;6.90;99.90
16968;DHT22;64862;54.398;10.126;2024-03-06T15:35:09;6.80;99.90
16968;DHT22;64862;54.398;10.126;2024-03-06T15:45:12;6.80;99.90
16968;DHT22;64862;54.398;10.126;2024-03-06T15:55:16;6.70;99.90
16968;DHT22;64862;54.398;10.126;2024-03-06T16:05:18;6.50;99.90
16968;DHT22;64862;54.398;10.126;2024-03-06T16:15:22;6.60;99.90
16968;DHT22;64862;54.398;10.126;2024-03-06T16:25:24;6.60;99.90
16968;DHT22;64862;54.398;10.126;2024-03-06T16:35:28;6.70;99.90
16968;DHT22;64862;54.398;10.126;2024-03-06T16:45:30;6.70;99.90
16968;DHT22;64862;54.398;10.126;2024-03-06T16:55:34;6.60;99.90
16968;DHT22;64862;54.398;10.126;2024-03-06T17:05:36;6.70;99.90
16968;DHT22;64862;54.398;10.126;2024-03-06T17:15:39;6.50;99.90
16968;DHT22;64862;54.398;10.126;2024-03-06T17:25:42;6.20;99.90
16968;DHT22;64862;54.398;10.126;2024-03-06T17:35:46;6.00;99.90
16968;DHT22;64862;54.398;10.126;2024-03-06T17:45:48;6.00;99.90
16968;DHT22;64862;54.398;10.126;2024-03-06T17:55:52;5.80;99.90
16968;DHT22;64862;54.398;10.126;2024-03-06T18:05:54;5.60;99.90
16968;DHT22;64862;54.398;10.126;2024-03-06T18:15:58;5.60;99.90
16968;DHT22;64862;54.398;10.126;2024-03-06T18:26:00;5.70;99.90
16968;DHT22;64862;54.398;10.126;2024-03-06T18:36:04;6.00;99.90
16968;DHT22;64862;54.398;10.126;2024-03-06T18:46:07;5.90;99.90
16968;DHT22;64862;54.398;10.126;2024-03-06T18:56:11;5.80;99.90
16968;DHT22;64862;54.398;10.126;2024-03-06T19:06:13;5.90;99.90
16968;DHT22;64862;54.398;10.126;2024-03-06T19:16:18;6.00;99.90
16968;DHT22;64862;54.398;10.126;2024-03-06T19:26:21;6.10;99.90
16968;DHT22;64862;54.398;10.126;2024-03-06T19:36:24;6.20;99.90
16968;DHT22;64862;54.398;10.126;2024-03-06T19:46:26;6.30;99.90
16968;DHT22;64862;54.398;10.126;2024-03-06T19:56:30;6.40;99.90
16968;DHT22;64862;54.398;10.126;2024-03-06T20:06:32;6.40;99.90
16968;DHT22;64862;54.398;10.126;2024-03-06T20:16:36;6.40;99.90
16968;DHT22;64862;54.398;10.126;2024-03-06T20:26:38;6.40;99.90
16968;DHT22;64862;54.398;10.126;2024-03-06T20:36:42;6.40;99.90
16968;DHT22;64862;54.398;10.126;2024-03-06T20:46:44;6.40;99.90
16968;DHT22;64862;54.398;10.126;2024-03-06T20:56:49;6.50;99.90
16968;DHT22;64862;54.398;10.126;2024-03-06T21:06:51;6.50;99.90
16968;DHT22;64862;54.398;10.126;2024-03-06T21:16:54;6.60;99.90
16968;DHT22;64862;54.398;10.126;2024-03-06T21:26:56;6.50;99.90
16968;DHT22;64862;54.398;10.126;2024-03-06T21:36:59;6.50;99.90
16968;DHT22;64862;54.398;10.126;2024-03-06T21:47:02;6.40;99.90
16968;DHT22;64862;54.398;10.126;2024-03-06T21:57:05;6.40;99.90
16968;DHT22;64862;54.398;10.126;2024-03-06T22:07:11;6.40;99.90
16968;DHT22;64862;54.398;10.126;2024-03-06T22:17:15;6.40;99.90
16968;DHT22;64862;54.398;10.126;2024-03-06T22:27:17;6.30;99.90
16968;DHT22;64862;54.398;10.126;2024-03-06T22:37:20;6.30;99.90
16968;DHT22;64862;54.398;10.126;2024-03-06T22:47:22;6.30;99.90
16968;DHT22;64862;54.398;10.126;2024-03-06T22:57:26;6.30;99.90
16968;DHT22;64862;54.398;10.126;2024-03-06T23:07:28;6.30;99.90
16968;DHT22;64862;54.398;10.126;2024-03-06T23:17:32;6.20;99.90
16968;DHT22;64862;54.398;10.126;2024-03-06T23:27:33;6.30;99.90
16968;DHT22;64862;54.398;10.126;2024-03-06T23:37:37;6.20;99.90
16968;DHT22;64862;54.398;10.126;2024-03-06T23:47:40;6.30;99.90
16968;DHT22;64862;54.398;10.126;2024-03-06T23:57:43;6.20;99.90
